Time;durP1;ratioP1;P1;durP2;ratioP2;P2;SDS_P1;SDS_P2;PMS_P1;PMS_P2;Temp;Humidity;BMP_temperature;BMP_pressure;BME280_temperature;BME280_humidity;BME280_pressure;Samples;Min_cycle;Max_cycle;Signal;HPM_P1;HPM_P2
2022/01/17 00:00:15;;;;;;;148.55;57.80;;;;;;;4.28;100.00;103098.59;5054006;28;20071;-85
2022/01/17 00:02:40;;;;;;;153.70;57.85;;;;;;;4.28;100.00;103098.59;5053823;28;20350;-86
2022/01/17 00:05:07;;;;;;;149.75;58.05;;;;;;;4.25;100.00;103095.00;5053294;28;20090;-86
2022/01/17 00:07:33;;;;;;;154.82;57.83;;;;;;;4.31;100.00;103118.47;5038445;28;20043;-86
2022/01/17 00:09:59;;;;;;;151.80;59.33;;;;;;;4.30;100.00;103116.72;5033991;28;20030;-85
2022/01/17 00:12:25;;;;;;;142.50;56.40;;;;;;;4.30;100.00;103117.59;5033125;28;20029;-86
2022/01/17 00:14:50;;;;;;;149.13;58.13;;;;;;;4.32;100.00;103131.47;5042909;28;20021;-86
2022/01/17 00:19:44;;;;;;;148.23;55.88;;;;;;;4.31;100.00;103128.81;5053539;28;20029;-85
2022/01/17 00:22:13;;;;;;;144.27;55.97;;;;;;;4.30;100.00;103133.09;5052920;28;20025;-86
2022/01/17 00:24:38;;;;;;;137.30;54.17;;;;;;;4.30;100.00;103132.22;5052993;28;20032;-86
2022/01/17 00:27:04;;;;;;;140.27;54.80;;;;;;;4.29;100.00;103136.50;5050622;28;20508;-86
2022/01/17 00:29:29;;;;;;;132.43;52.92;;;;;;;4.29;100.00;103139.09;5053593;28;20025;-86
2022/01/17 00:31:56;;;;;;;132.40;51.47;;;;;;;4.28;100.00;103147.66;5052400;28;20028;-86
2022/01/17 00:34:21;;;;;;;124.38;51.83;;;;;;;4.29;100.00;103131.34;5053897;28;20025;-86
2022/01/17 00:36:46;;;;;;;136.70;52.90;;;;;;;4.28;100.00;103129.56;5049829;28;20361;-86
2022/01/17 00:39:12;;;;;;;130.70;51.17;;;;;;;4.26;100.00;103120.03;5041587;28;20026;-86
2022/01/17 00:41:37;;;;;;;131.88;52.03;;;;;;;4.26;100.00;103110.56;5033546;28;20034;-85
2022/01/17 00:44:03;;;;;;;122.65;49.83;;;;;;;4.26;100.00;103118.31;5048314;28;20032;-86
2022/01/17 00:46:29;;;;;;;128.55;49.80;;;;;;;4.25;100.00;103126.91;5052468;28;20029;-86
2022/01/17 00:48:54;;;;;;;120.90;48.80;;;;;;;4.22;100.00;103119.03;5052918;28;20040;-86
2022/01/17 00:51:21;;;;;;;114.65;48.58;;;;;;;4.25;100.00;103132.06;5053396;28;20053;-85
2022/01/17 00:53:46;;;;;;;129.77;48.53;;;;;;;4.21;100.00;103135.31;5050099;28;20048;-86
2022/01/17 00:56:12;;;;;;;129.63;47.95;;;;;;;4.27;100.00;103143.31;5052974;28;20025;-86
2022/01/17 00:58:37;;;;;;;120.65;48.88;;;;;;;4.22;100.00;103130.22;5051892;28;20036;-86
2022/01/17 01:01:02;;;;;;;122.95;47.10;;;;;;;4.27;100.00;103127.81;5052057;28;20040;-86
2022/01/17 01:03:28;;;;;;;116.30;45.25;;;;;;;4.26;100.00;103144.13;5049732;28;20036;-86
2022/01/17 01:05:53;;;;;;;113.18;46.42;;;;;;;4.29;100.00;103138.22;5052933;28;20100;-87
2022/01/17 01:08:18;;;;;;;109.38;44.78;;;;;;;4.27;100.00;103143.31;5051737;28;20468;-86
2022/01/17 01:10:43;;;;;;;110.03;45.92;;;;;;;4.26;100.00;103149.31;5052010;28;20044;-87
2022/01/17 01:13:09;;;;;;;115.28;45.30;;;;;;;4.27;100.00;103148.47;5050511;28;20476;-86
2022/01/17 01:18:19;;;;;;;107.88;44.50;;;;;;;4.27;100.00;103156.22;5052765;28;20037;-86
2022/01/17 01:28:43;;;;;;;101.90;42.80;;;;;;;4.27;100.00;103153.63;5051469;28;20044;-86
2022/01/17 01:31:16;;;;;;;107.97;43.90;;;;;;;4.29;100.00;103152.00;5052362;28;20033;-86
2022/01/17 01:33:49;;;;;;;108.53;44.88;;;;;;;4.31;100.00;103144.31;5044011;28;20491;-87
2022/01/17 01:36:20;;;;;;;107.00;40.87;;;;;;;4.31;100.00;103139.13;5033447;28;20048;-86
2022/01/17 01:38:46;;;;;;;96.10;38.13;;;;;;;4.30;100.00;103127.94;5052148;28;20362;-87
2022/01/17 01:41:12;;;;;;;97.53;39.83;;;;;;;4.35;100.00;103138.44;5051993;28;20039;-87
2022/01/17 01:43:37;;;;;;;83.72;38.65;;;;;;;4.28;100.00;103132.16;5049440;28;20392;-86
2022/01/17 01:46:02;;;;;;;87.53;35.70;;;;;;;4.12;100.00;103137.53;5051160;28;20028;-87
2022/01/17 01:48:31;;;;;;;86.25;37.20;;;;;;;4.06;100.00;103150.22;5049526;28;20029;-86
2022/01/17 01:50:57;;;;;;;80.30;35.80;;;;;;;3.95;100.00;103160.09;5050552;28;20392;-86
2022/01/17 01:53:23;;;;;;;85.32;33.70;;;;;;;3.86;100.00;103170.94;5048146;28;20087;-86
2022/01/17 01:55:51;;;;;;;77.00;33.65;;;;;;;3.79;100.00;103174.06;5051542;28;20024;-87
2022/01/17 01:58:16;;;;;;;82.78;32.40;;;;;;;3.71;100.00;103171.16;5051998;28;20053;-87
2022/01/17 02:00:42;;;;;;;75.68;33.17;;;;;;;3.66;100.00;103170.09;5051930;28;20480;-86
2022/01/17 02:03:07;;;;;;;82.13;34.28;;;;;;;3.58;100.00;103148.25;5042500;28;20796;-86
2022/01/17 02:05:33;;;;;;;89.15;34.17;;;;;;;3.51;100.00;103149.69;5032816;28;20044;-86
2022/01/17 02:07:58;;;;;;;80.75;33.20;;;;;;;3.46;100.00;103160.63;5051328;28;20031;-86
2022/01/17 02:10:23;;;;;;;88.70;32.03;;;;;;;3.40;100.00;103171.56;5051191;28;20465;-86
2022/01/17 02:12:49;;;;;;;82.88;32.55;;;;;;;3.35;100.00;103167.03;5051771;28;20350;-85
2022/01/17 02:15:17;;;;;;;78.57;31.60;;;;;;;3.29;100.00;103175.38;5048769;28;20481;-86
2022/01/17 02:17:53;;;;;;;68.75;31.55;;;;;;;3.24;100.00;103176.88;5050907;28;20037;-86
2022/01/17 02:20:22;;;;;;;80.18;32.40;;;;;;;3.17;100.00;103164.50;5050516;28;20055;-86
2022/01/17 02:22:48;;;;;;;77.15;30.65;;;;;;;3.11;100.00;103170.28;5050681;28;20032;-85
2022/01/17 02:25:14;;;;;;;78.20;30.75;;;;;;;3.05;100.00;103173.47;5050305;28;20025;-86
2022/01/17 02:27:39;;;;;;;78.65;31.40;;;;;;;3.02;100.00;103178.47;5049007;28;20037;-86
2022/01/17 02:30:05;;;;;;;74.35;30.17;;;;;;;2.93;100.00;103161.72;5050966;28;20385;-85
2022/01/17 02:32:31;;;;;;;69.47;30.48;;;;;;;2.88;100.00;103166.69;5050683;28;20033;-85
2022/01/17 02:35:17;;;;;;;79.07;30.27;;;;;;;2.81;100.00;103167.19;5049228;28;20028;-85
2022/01/17 02:37:42;;;;;;;65.93;29.15;;;;;;;2.71;100.00;103155.59;5050732;28;20040;-86
2022/01/17 02:40:08;;;;;;;76.28;29.80;;;;;;;2.67;100.00;103163.13;5030951;28;20033;-86
2022/01/17 02:42:35;;;;;;;75.15;28.80;;;;;;;2.57;100.00;103170.41;5031305;28;20029;-85
2022/01/17 02:45:10;;;;;;;79.85;28.50;;;;;;;2.55;100.00;103161.75;5031015;28;20034;-85
2022/01/17 02:47:35;;;;;;;76.72;29.88;;;;;;;2.48;100.00;103163.94;5031399;28;20458;-85
2022/01/17 02:50:01;;;;;;;75.13;30.20;;;;;;;2.44;100.00;103162.03;5032277;28;20112;-86
2022/01/17 02:52:26;;;;;;;72.22;28.95;;;;;;;2.37;100.00;103165.16;5035236;28;20036;-87
2022/01/17 02:54:51;;;;;;;72.95;29.40;;;;;;;2.37;100.00;103165.16;5048550;28;20033;-86
2022/01/17 02:57:16;;;;;;;77.82;29.63;;;;;;;2.33;100.00;103171.84;5051435;28;20103;-86
2022/01/17 02:59:42;;;;;;;81.88;29.95;;;;;;;2.27;100.00;103174.13;5040903;28;20043;-85
2022/01/17 03:02:07;;;;;;;72.05;27.67;;;;;;;2.23;100.00;103170.53;5050635;28;20041;-86
2022/01/17 03:04:33;;;;;;;68.72;28.10;;;;;;;2.16;100.00;103170.13;5051249;28;20479;-86
2022/01/17 03:06:58;;;;;;;72.05;27.92;;;;;;;2.09;100.00;103159.56;5049657;28;20056;-85
2022/01/17 03:09:24;;;;;;;87.50;30.63;;;;;;;2.15;100.00;103163.22;5050768;28;20018;-86
2022/01/17 03:11:50;;;;;;;85.15;31.73;;;;;;;2.22;100.00;103162.72;5051466;28;20435;-85
2022/01/17 03:14:15;;;;;;;89.80;31.83;;;;;;;2.20;100.00;103156.63;5050222;28;20104;-86
2022/01/17 03:16:46;;;;;;;90.72;30.38;;;;;;;2.15;100.00;103153.81;5033007;28;20037;-86
2022/01/17 03:19:11;;;;;;;86.70;32.28;;;;;;;2.16;100.00;103154.69;5033263;28;20063;-85
2022/01/17 03:21:37;;;;;;;97.85;33.25;;;;;;;2.16;100.00;103153.03;5051433;28;20120;-86
2022/01/17 03:24:03;;;;;;;107.55;36.45;;;;;;;2.28;100.00;103155.28;5053067;28;20029;-86
2022/01/17 03:26:30;;;;;;;119.75;37.28;;;;;;;2.39;100.00;103156.69;5054836;28;20025;-86
2022/01/17 03:28:57;;;;;;;111.80;36.17;;;;;;;2.42;100.00;103145.63;5039993;28;20045;-86
2022/01/17 03:31:23;;;;;;;124.00;38.75;;;;;;;2.43;100.00;103148.28;5037314;28;20025;-86
2022/01/17 03:33:48;;;;;;;119.05;38.50;;;;;;;2.47;100.00;103141.59;5053799;28;20041;-86
2022/01/17 03:36:13;;;;;;;110.70;37.17;;;;;;;2.44;100.00;103146.59;5053648;28;20083;-86
2022/01/17 03:38:40;;;;;;;105.82;37.10;;;;;;;2.43;100.00;103145.72;5049932;28;20064;-86
2022/01/17 03:41:07;;;;;;;116.57;36.67;;;;;;;2.40;100.00;103155.00;5034685;28;20022;-86
2022/01/17 03:43:33;;;;;;;117.00;36.38;;;;;;;2.40;100.00;103158.44;5033437;28;20021;-86
2022/01/17 03:45:59;;;;;;;114.93;37.65;;;;;;;2.45;100.00;103158.66;5034322;28;20036;-86
2022/01/17 03:48:26;;;;;;;116.45;36.78;;;;;;;2.46;100.00;103166.47;5033712;28;20029;-86
2022/01/17 03:50:52;;;;;;;117.28;36.00;;;;;;;2.48;100.00;103169.97;5035424;28;20025;-86
2022/01/17 03:53:17;;;;;;;121.70;38.10;;;;;;;2.52;100.00;103166.75;5045326;28;20115;-86
2022/01/17 03:55:43;;;;;;;108.53;36.47;;;;;;;2.49;100.00;103160.59;5053591;28;20037;-86
2022/01/17 03:58:08;;;;;;;104.70;34.40;;;;;;;2.44;100.00;103162.94;5053840;28;20032;-86
2022/01/17 04:00:40;;;;;;;101.60;33.55;;;;;;;2.46;100.00;103161.31;5053357;28;20101;-86
2022/01/17 04:03:06;;;;;;;96.47;33.67;;;;;;;2.44;100.00;103160.34;5053132;28;20377;-86
2022/01/17 04:05:32;;;;;;;100.28;33.75;;;;;;;2.35;100.00;103157.34;5053962;28;20024;-86
2022/01/17 04:07:57;;;;;;;91.18;32.47;;;;;;;2.38;100.00;103169.47;5039017;28;20370;-87
2022/01/17 04:10:23;;;;;;;98.28;32.70;;;;;;;2.30;100.00;103161.41;5052703;28;20036;-86
2022/01/17 04:12:48;;;;;;;89.00;30.50;;;;;;;2.25;100.00;103168.00;5053772;28;20025;-86
2022/01/17 04:15:15;;;;;;;85.32;28.80;;;;;;;2.15;100.00;103168.38;5053575;28;20029;-86
2022/01/17 04:17:42;;;;;;;89.07;30.38;;;;;;;2.11;100.00;103170.81;5053199;28;20159;-86
2022/01/17 04:20:12;;;;;;;92.10;29.50;;;;;;;2.03;100.00;103166.13;5051541;28;20022;-86
2022/01/17 04:22:45;;;;;;;89.70;30.83;;;;;;;2.09;100.00;103185.31;5052654;28;20116;-86
2022/01/17 04:25:11;;;;;;;91.72;29.98;;;;;;;2.11;100.00;103181.09;5051771;28;20434;-85
2022/01/17 04:27:36;;;;;;;83.43;29.02;;;;;;;2.15;100.00;103178.66;5053294;28;20136;-86
2022/01/17 04:30:05;;;;;;;78.18;28.60;;;;;;;2.10;100.00;103176.78;5053427;28;20029;-86
2022/01/17 04:32:30;;;;;;;78.65;28.25;;;;;;;2.09;100.00;103187.88;5033855;28;20431;-86
2022/01/17 04:34:55;;;;;;;90.63;28.80;;;;;;;2.12;100.00;103192.28;5033425;28;20079;-85
2022/01/17 04:37:20;;;;;;;84.88;28.88;;;;;;;2.19;100.00;103193.44;5037456;28;20021;-86
2022/01/17 04:39:46;;;;;;;90.60;29.73;;;;;;;2.13;100.00;103190.59;5050273;28;20419;-86
2022/01/17 04:42:12;;;;;;;73.45;28.08;;;;;;;2.11;100.00;103188.81;5035627;28;20029;-85
2022/01/17 04:47:25;;;;;;;83.22;27.95;;;;;;;2.00;100.00;103184.84;5033687;28;20091;-86
2022/01/17 04:49:51;;;;;;;77.88;27.52;;;;;;;1.96;100.00;103182.94;5050328;28;20037;-86
2022/01/17 04:52:16;;;;;;;89.47;29.20;;;;;;;1.99;100.00;103183.06;5035312;28;20103;-86
2022/01/17 04:54:43;;;;;;;87.57;29.08;;;;;;;1.99;100.00;103177.03;5050297;28;20107;-87
2022/01/17 04:57:10;;;;;;;86.53;29.25;;;;;;;2.00;100.00;103174.56;5052856;28;20474;-86
2022/01/17 04:59:36;;;;;;;90.53;31.00;;;;;;;1.98;100.00;103178.72;5052068;28;20035;-86
2022/01/17 05:02:02;;;;;;;87.68;30.05;;;;;;;2.03;100.00;103184.13;5044631;28;20021;-86
2022/01/17 05:04:28;;;;;;;87.97;32.42;;;;;;;2.06;100.00;103187.72;5032768;28;20026;-86
2022/01/17 05:06:53;;;;;;;93.90;31.63;;;;;;;2.04;100.00;103191.03;5043880;28;20036;-86
2022/01/17 05:09:19;;;;;;;87.63;33.08;;;;;;;1.99;100.00;103183.06;5052283;28;20025;-86
2022/01/17 05:11:44;;;;;;;100.38;34.15;;;;;;;2.02;100.00;103192.63;5043114;28;20250;-85
2022/01/17 05:14:10;;;;;;;99.80;34.47;;;;;;;2.03;100.00;103197.88;5033046;28;20114;-85
2022/01/17 05:16:41;;;;;;;102.45;34.33;;;;;;;2.00;100.00;103209.69;5032644;28;20107;-86
2022/01/17 05:21:50;;;;;;;90.97;31.65;;;;;;;1.85;100.00;103220.09;5032272;28;20044;-86
2022/01/17 05:24:16;;;;;;;78.18;29.02;;;;;;;1.77;100.00;103216.28;5050019;28;20033;-85
2022/01/17 05:26:41;;;;;;;80.15;29.50;;;;;;;1.71;100.00;103216.84;5052447;28;20029;-86
2022/01/17 05:29:07;;;;;;;81.22;30.92;;;;;;;1.72;100.00;103223.72;5046505;28;20476;-85
2022/01/17 05:31:32;;;;;;;88.82;31.13;;;;;;;1.68;100.00;103223.50;5032499;28;20021;-86
2022/01/17 05:33:57;;;;;;;87.57;30.52;;;;;;;1.68;100.00;103220.94;5031407;28;20042;-85
2022/01/17 05:36:23;;;;;;;96.80;32.75;;;;;;;1.64;100.00;103236.22;5032499;28;20018;-86
2022/01/17 05:38:48;;;;;;;90.65;30.67;;;;;;;1.61;100.00;103230.03;5047493;28;20474;-86
2022/01/17 05:41:14;;;;;;;81.40;30.23;;;;;;;1.55;100.00;103225.44;5032565;28;20473;-86
2022/01/17 05:43:39;;;;;;;84.85;30.40;;;;;;;1.47;100.00;103228.41;5031536;28;20373;-85
2022/01/17 05:46:04;;;;;;;89.68;31.35;;;;;;;1.45;100.00;103227.47;5032034;28;20057;-86
2022/01/17 05:48:30;;;;;;;85.45;30.35;;;;;;;1.41;100.00;103231.56;5038841;28;20488;-86
2022/01/17 05:50:55;;;;;;;87.15;31.98;;;;;;;1.39;100.00;103228.91;5047259;28;20022;-86
2022/01/17 05:53:20;;;;;;;77.88;28.77;;;;;;;1.35;100.00;103228.66;5046496;28;20033;-86
2022/01/17 05:55:46;;;;;;;71.32;29.15;;;;;;;1.28;100.00;103219.75;5050677;28;20102;-86
2022/01/17 05:58:12;;;;;;;63.10;27.15;;;;;;;1.26;100.00;103225.63;5052010;28;20096;-86
2022/01/17 06:00:38;;;;;;;81.80;29.75;;;;;;;1.27;100.00;103223.09;5051750;28;20570;-86
2022/01/17 06:03:03;;;;;;;93.55;34.33;;;;;;;1.31;100.00;103235.34;5032134;28;20088;-86
2022/01/17 06:05:28;;;;;;;92.20;33.38;;;;;;;1.37;100.00;103247.59;5031781;28;20033;-85
2022/01/17 06:07:54;;;;;;;99.00;34.28;;;;;;;1.36;100.00;103239.03;5044900;28;20029;-85
2022/01/17 06:10:19;;;;;;;95.80;33.78;;;;;;;1.35;100.00;103233.81;5051231;28;20033;-85
2022/01/17 06:12:44;;;;;;;95.10;34.67;;;;;;;1.36;100.00;103230.44;5037211;28;20045;-85
2022/01/17 06:15:10;;;;;;;96.57;35.83;;;;;;;1.33;100.00;103233.72;5031654;28;20477;-86
2022/01/17 06:17:36;;;;;;;102.47;37.97;;;;;;;1.40;100.00;103240.06;5030671;28;20029;-85
2022/01/17 06:20:01;;;;;;;103.63;37.50;;;;;;;1.39;100.00;103243.44;5030404;28;20025;-86
2022/01/17 06:22:27;;;;;;;127.25;41.13;;;;;;;1.43;100.00;103239.34;5041201;28;20027;-85
2022/01/17 06:24:52;;;;;;;113.47;40.35;;;;;;;1.45;100.00;103248.91;5050525;28;20063;-85
2022/01/17 06:27:18;;;;;;;115.78;41.45;;;;;;;1.47;100.00;103244.75;5051559;28;20075;-85
2022/01/17 06:29:44;;;;;;;131.75;41.58;;;;;;;1.51;100.00;103258.63;5050558;28;20120;-85
2022/01/17 06:32:09;;;;;;;131.18;44.72;;;;;;;1.54;100.00;103251.09;5043308;28;20034;-86
2022/01/17 06:34:34;;;;;;;130.27;42.17;;;;;;;1.47;100.00;103247.31;5031392;28;20029;-85
2022/01/17 06:37:00;;;;;;;121.60;43.47;;;;;;;1.48;100.00;103236.22;5042080;28;20465;-86
2022/01/17 06:39:25;;;;;;;124.43;43.58;;;;;;;1.48;100.00;103235.34;5048942;28;20025;-86
2022/01/17 06:41:51;;;;;;;140.25;47.17;;;;;;;1.55;100.00;103247.69;5031651;28;20358;-85
2022/01/17 06:44:17;;;;;;;144.65;47.55;;;;;;;1.75;100.00;103266.72;5030732;28;20021;-86
2022/01/17 06:46:42;;;;;;;163.38;49.45;;;;;;;1.92;100.00;103268.47;5031013;28;20021;-86
2022/01/17 06:49:08;;;;;;;167.27;52.13;;;;;;;2.04;100.00;103263.94;5042375;28;20037;-86
2022/01/17 06:51:34;;;;;;;185.13;52.00;;;;;;;2.09;100.00;103265.06;5048121;28;20419;-86
2022/01/17 06:53:59;;;;;;;167.93;51.00;;;;;;;2.10;100.00;103265.97;5050866;28;20036;-86
2022/01/17 06:56:25;;;;;;;180.00;55.58;;;;;;;2.15;100.00;103272.19;5055039;28;20029;-86
2022/01/17 06:58:50;;;;;;;183.13;53.83;;;;;;;2.16;100.00;103286.84;5054939;28;20025;-86
2022/01/17 07:01:16;;;;;;;170.15;51.45;;;;;;;2.19;100.00;103292.16;5042243;28;20033;-87
2022/01/17 07:03:42;;;;;;;163.45;51.33;;;;;;;2.19;100.00;103304.13;5035176;28;20018;-87
2022/01/17 07:06:07;;;;;;;161.57;51.70;;;;;;;2.20;100.00;103300.75;5042034;28;20032;-86
2022/01/17 07:08:32;;;;;;;153.30;49.20;;;;;;;2.13;100.00;103299.56;5055196;28;20029;-86
2022/01/17 07:10:57;;;;;;;145.00;46.90;;;;;;;2.03;100.00;103328.22;5054309;28;20431;-85
2022/01/17 07:13:23;;;;;;;134.50;44.53;;;;;;;1.92;100.00;103314.78;5054279;28;20029;-86
2022/01/17 07:15:48;;;;;;;130.23;45.90;;;;;;;1.93;100.00;103300.22;5052145;28;20021;-86
2022/01/17 07:18:14;;;;;;;141.00;47.13;;;;;;;1.93;100.00;103289.94;5034698;28;20029;-86
2022/01/17 07:20:40;;;;;;;131.07;45.03;;;;;;;1.84;100.00;103280.06;5040301;28;20032;-85
2022/01/17 07:23:05;;;;;;;137.07;44.85;;;;;;;1.83;100.00;103273.13;5053413;28;20477;-85
2022/01/17 07:25:31;;;;;;;137.32;44.55;;;;;;;1.79;100.00;103250.66;5054812;28;20059;-85
2022/01/17 07:27:57;;;;;;;129.23;44.40;;;;;;;1.90;100.00;103248.59;5053011;28;20396;-86
2022/01/17 07:30:23;;;;;;;147.05;45.47;;;;;;;1.87;100.00;103241.66;5054896;28;20021;-86
2022/01/17 07:32:49;;;;;;;126.03;42.28;;;;;;;1.92;100.00;103247.88;5054401;28;20063;-86
2022/01/17 07:35:14;;;;;;;146.18;45.17;;;;;;;1.97;100.00;103269.59;5053870;28;20024;-86
2022/01/17 07:37:40;;;;;;;153.38;49.22;;;;;;;2.01;100.00;103273.22;5044387;28;20034;-86
2022/01/17 07:40:06;;;;;;;151.43;47.42;;;;;;;2.00;100.00;103272.31;5050795;28;20062;-86
2022/01/17 07:42:31;;;;;;;150.57;45.30;;;;;;;1.99;100.00;103280.84;5048271;28;20030;-86
2022/01/17 07:44:58;;;;;;;144.63;46.67;;;;;;;1.99;100.00;103285.97;5034294;28;20103;-85
2022/01/17 07:47:39;;;;;;;144.02;47.08;;;;;;;2.00;100.00;103284.31;5034429;28;20044;-86
2022/01/17 07:50:11;;;;;;;148.88;48.58;;;;;;;1.96;100.00;103283.28;5034539;28;20018;-85
2022/01/17 07:52:37;;;;;;;137.75;46.53;;;;;;;1.97;100.00;103289.31;5047370;28;20067;-86
2022/01/17 07:55:03;;;;;;;147.68;47.03;;;;;;;1.91;100.00;103300.16;5052720;28;20120;-86
2022/01/17 07:57:29;;;;;;;152.27;45.15;;;;;;;1.93;100.00;103308.84;5053472;28;20115;-86
2022/01/17 07:59:54;;;;;;;153.80;47.78;;;;;;;1.96;100.00;103309.00;5038720;28;20491;-86
2022/01/17 08:02:21;;;;;;;151.68;47.95;;;;;;;2.05;100.00;103313.72;5033660;28;20416;-86
2022/01/17 08:04:46;;;;;;;152.05;47.40;;;;;;;2.09;100.00;103329.41;5035033;28;20476;-85
2022/01/17 08:07:11;;;;;;;161.68;49.50;;;;;;;2.16;100.00;103330.59;5045887;28;20075;-86
2022/01/17 08:09:36;;;;;;;167.93;49.17;;;;;;;2.28;100.00;103325.16;5053043;28;20028;-86
2022/01/17 08:12:05;;;;;;;168.52;49.33;;;;;;;2.31;100.00;103330.47;5053711;28;20029;-86
2022/01/17 08:14:30;;;;;;;163.63;50.90;;;;;;;2.38;100.00;103336.81;5047050;28;20029;-87
2022/01/17 08:16:56;;;;;;;170.43;49.33;;;;;;;2.36;100.00;103344.47;5037789;28;20485;-85
2022/01/17 08:19:24;;;;;;;172.02;50.30;;;;;;;2.38;100.00;103344.53;5051479;28;20373;-86
2022/01/17 08:21:51;;;;;;;188.63;50.47;;;;;;;2.39;100.00;103339.50;5054119;28;20021;-85
2022/01/17 08:24:17;;;;;;;179.70;51.17;;;;;;;2.39;100.00;103318.88;5050249;28;20451;-85
2022/01/17 08:26:44;;;;;;;188.40;51.50;;;;;;;2.40;100.00;103312.91;5052133;28;20116;-85
2022/01/17 08:29:10;;;;;;;179.60;49.70;;;;;;;2.54;100.00;103324.78;5052550;28;20060;-85
2022/01/17 08:31:36;;;;;;;175.57;48.88;;;;;;;2.65;100.00;103334.72;5051237;28;20025;-85
2022/01/17 08:34:02;;;;;;;195.18;55.53;;;;;;;2.72;100.00;103331.66;5033210;28;20465;-86
2022/01/17 08:36:27;;;;;;;201.32;54.70;;;;;;;2.88;100.00;103335.81;5035470;28;20045;-86
2022/01/17 08:38:53;;;;;;;207.55;54.88;;;;;;;2.97;100.00;103336.28;5051857;28;20040;-85
2022/01/17 08:41:19;;;;;;;199.00;54.65;;;;;;;3.02;100.00;103338.25;5052851;28;20104;-86
2022/01/17 08:43:45;;;;;;;216.30;56.08;;;;;;;3.05;100.00;103328.09;5048546;28;20113;-86
2022/01/17 08:46:10;;;;;;;210.88;54.88;;;;;;;3.12;100.00;103325.81;5033271;28;20022;-86
2022/01/17 08:48:37;;;;;;;181.73;52.55;;;;;;;3.13;100.00;103315.56;5050659;28;20025;-86
2022/01/17 08:51:03;;;;;;;193.73;54.10;;;;;;;3.20;100.00;103316.72;5052449;28;20112;-86
2022/01/17 08:53:28;;;;;;;205.50;52.35;;;;;;;3.25;100.00;103323.00;5045909;28;20109;-86
2022/01/17 08:55:53;;;;;;;186.77;50.90;;;;;;;3.31;100.00;103319.84;5038055;28;20025;-85
2022/01/17 08:58:19;;;;;;;177.10;50.33;;;;;;;3.36;100.00;103326.94;5051669;28;20091;-86
2022/01/17 09:00:44;;;;;;;191.52;50.03;;;;;;;3.39;100.00;103331.38;5053125;28;20040;-86
2022/01/17 09:03:10;;;;;;;189.70;49.28;;;;;;;3.40;100.00;103334.03;5052331;28;20047;-85
2022/01/17 09:05:36;;;;;;;173.98;49.05;;;;;;;3.44;100.00;103333.34;5052011;28;20043;-85
2022/01/17 09:08:03;;;;;;;154.45;46.15;;;;;;;3.48;100.00;103342.09;5051121;28;20484;-85
2022/01/17 09:10:29;;;;;;;154.07;42.63;;;;;;;3.52;100.00;103339.72;5051862;28;20036;-86
2022/01/17 09:12:54;;;;;;;154.90;44.72;;;;;;;3.56;100.00;103337.28;5039329;28;20037;-85
2022/01/17 09:15:20;;;;;;;146.80;41.20;;;;;;;3.59;100.00;103334.84;5052976;28;20064;-86
2022/01/17 09:17:46;;;;;;;152.00;41.78;;;;;;;3.62;100.00;103347.88;5050356;28;20032;-86
2022/01/17 09:20:11;;;;;;;129.25;39.15;;;;;;;3.67;100.00;103352.44;5051010;28;20029;-85
2022/01/17 09:22:37;;;;;;;124.75;37.65;;;;;;;3.69;100.00;103358.53;5051016;28;20108;-85
2022/01/17 09:25:06;;;;;;;122.97;36.42;;;;;;;3.74;100.00;103372.53;5045835;28;20033;-85
2022/01/17 09:27:32;;;;;;;120.15;35.58;;;;;;;3.81;100.00;103376.28;5045398;28;20041;-85
2022/01/17 09:29:57;;;;;;;113.00;33.70;;;;;;;3.83;100.00;103374.66;5048798;28;20029;-88
2022/01/17 09:32:22;;;;;;;103.18;32.22;;;;;;;3.88;100.00;103390.34;5052498;28;20388;-86
2022/01/17 09:34:47;;;;;;;96.47;32.22;;;;;;;3.92;100.00;103376.75;5051628;28;20028;-86
2022/01/17 09:37:13;;;;;;;96.60;31.25;;;;;;;4.06;100.00;103392.88;5050227;28;20025;-87
2022/01/17 09:39:39;;;;;;;92.22;29.40;;;;;;;4.12;100.00;103383.69;5046335;28;20110;-87
2022/01/17 09:42:09;;;;;;;91.05;27.77;;;;;;;4.19;100.00;103377.09;5045353;28;20025;-85
2022/01/17 09:44:36;;;;;;;75.60;26.02;;;;;;;4.19;100.00;103377.97;5047165;28;20162;-85
2022/01/17 09:47:06;;;;;;;80.70;25.48;;;;;;;4.25;100.00;103381.63;5045123;28;20123;-86
2022/01/17 09:49:43;;;;;;;72.32;23.55;;;;;;;4.27;100.00;103391.22;5050329;28;20082;-86
2022/01/17 09:52:25;;;;;;;63.80;22.80;;;;;;;4.31;100.00;103395.69;5050479;28;20032;-86
2022/01/17 09:54:51;;;;;;;61.70;21.80;;;;;;;4.32;100.00;103405.22;5045809;28;20033;-86
2022/01/17 09:57:18;;;;;;;54.28;19.88;;;;;;;4.33;100.00;103406.97;5050661;28;20013;-87
2022/01/17 09:59:44;;;;;;;57.58;19.60;;;;;;;4.37;100.00;103403.69;5050420;28;20021;-86
2022/01/17 10:02:11;;;;;;;54.15;18.58;;;;;;;4.37;100.00;103419.19;5049670;28;20047;-85
2022/01/17 10:04:37;;;;;;;57.00;18.00;;;;;;;4.39;100.00;103417.56;5048342;28;20123;-85
2022/01/17 10:07:05;;;;;;;47.70;17.05;;;;;;;4.40;100.00;103409.00;5053731;28;20444;-85
2022/01/17 10:09:33;;;;;;;45.05;17.27;;;;;;;4.40;100.00;103424.50;5050630;28;20457;-86
2022/01/17 10:12:07;;;;;;;43.40;16.23;;;;;;;4.39;100.00;103412.41;5050576;28;20032;-84
2022/01/17 10:14:44;;;;;;;52.33;15.65;;;;;;;4.42;100.00;103412.53;5047031;28;20479;-84
2022/01/17 10:17:13;;;;;;;43.72;15.23;;;;;;;4.43;100.00;103416.88;5033669;28;20117;-84
2022/01/17 10:19:39;;;;;;;41.22;15.13;;;;;;;4.50;100.00;103430.06;5051183;28;20476;-84
2022/01/17 10:22:14;;;;;;;42.88;15.15;;;;;;;4.51;100.00;103414.59;5047431;28;20021;-84
2022/01/17 10:25:01;;;;;;;47.03;15.20;;;;;;;4.54;100.00;103413.88;5050127;28;20028;-83
2022/01/17 10:27:49;;;;;;;52.00;15.40;;;;;;;4.56;100.00;103422.56;5048841;28;20044;-84
2022/01/17 10:35:49;;;;;;;37.90;13.10;;;;;;;4.63;100.00;103432.34;5012946;28;20105;-83
2022/01/17 10:38:22;;;;;;;36.83;13.55;;;;;;;4.68;100.00;103438.59;5026503;28;20039;-86
2022/01/17 10:41:02;;;;;;;39.60;12.23;;;;;;;4.70;100.00;103429.19;5031930;28;20033;-86
2022/01/17 10:43:35;;;;;;;39.92;12.65;;;;;;;4.72;100.00;103437.03;5048162;28;20032;-85
2022/01/17 10:46:07;;;;;;;39.58;12.40;;;;;;;4.77;100.00;103431.22;5046587;28;20021;-85
2022/01/17 10:48:35;;;;;;;39.85;11.52;;;;;;;4.76;100.00;103431.16;5050952;28;20119;-85
2022/01/17 10:51:01;;;;;;;33.35;12.05;;;;;;;4.78;100.00;103445.94;5050645;28;20074;-86
2022/01/17 10:53:26;;;;;;;30.45;11.63;;;;;;;4.81;100.00;103432.25;5055140;28;20040;-86
2022/01/17 10:55:54;;;;;;;37.70;11.02;;;;;;;4.80;100.00;103439.09;5049357;28;20443;-86
2022/01/17 10:58:32;;;;;;;35.25;10.98;;;;;;;4.88;100.00;103450.66;5049727;28;20029;-86
2022/01/17 11:01:02;;;;;;;38.40;10.63;;;;;;;4.93;100.00;103449.13;5050158;28;20033;-86
2022/01/17 11:03:31;;;;;;;33.70;11.93;;;;;;;4.99;100.00;103463.13;5050974;28;20057;-86
2022/01/17 11:06:01;;;;;;;33.38;11.15;;;;;;;5.04;100.00;103464.22;5049852;28;20448;-86
2022/01/17 11:08:29;;;;;;;32.33;10.68;;;;;;;5.06;100.00;103460.84;5050732;28;20029;-85
2022/01/17 11:10:56;;;;;;;34.53;10.05;;;;;;;5.08;100.00;103473.88;5048094;28;20044;-85
2022/01/17 11:13:26;;;;;;;33.30;10.02;;;;;;;5.12;100.00;103470.59;5045864;28;20026;-86
2022/01/17 11:15:54;;;;;;;28.77;10.65;;;;;;;5.19;100.00;103461.38;5046573;28;20029;-87
2022/01/17 11:18:25;;;;;;;34.28;10.90;;;;;;;5.23;100.00;103452.91;5051174;28;20032;-85
2022/01/17 11:21:00;;;;;;;39.13;10.75;;;;;;;5.27;100.00;103468.63;5050470;28;20029;-86
2022/01/17 11:23:27;;;;;;;30.90;10.90;;;;;;;5.29;100.00;103463.50;5049126;28;20385;-85
2022/01/17 11:25:55;;;;;;;32.75;9.85;;;;;;;5.30;100.00;103453.22;5049408;28;20032;-86